Address 0x88b7a44cecd526cd2d424b0a4cc2bbb26341dd8f 13

Txn Hash Method
Block
From
To
Value [Txn Fee]
0xb7ce26c9dfa6291fa89f28f269a18eaa6e9f781949e2b59489a6d1f44b0df625Swap Exact Token...158282112022-06-10 2:32:2026 days 59 mins ago0x88b7a44cecd526cd2d424b0a4cc2bbb26341dd8fOUT Trader Joe: Router0 AVAX0.004330789 26.5
0x77200cd758cb3bc6f7abb12d3f243cc0d64f5fb440a56385ce30bcecbc0c01e8Swap Exact Token...158281312022-06-10 2:29:3726 days 1 hr ago0x88b7a44cecd526cd2d424b0a4cc2bbb26341dd8fOUT Trader Joe: Router0 AVAX0.0043029905 26.5
0xaf6e1acbf4e1ae91997984b2ca3eef46036b668b93adfac186de019491777268Swap Exact Token...158281182022-06-10 2:29:0826 days 1 hr ago0x88b7a44cecd526cd2d424b0a4cc2bbb26341dd8fOUT Trader Joe: Router0 AVAX0.004432973 26.5
0x195f889e001bfa81409857182369fd1c41953940d0a85d257a37369fe13a6dd5Multiclaim158280552022-06-10 2:27:0126 days 1 hr ago0x88b7a44cecd526cd2d424b0a4cc2bbb26341dd8fOUT 0x423d0fe33031aa4456a17b150804aa57fc157d970 AVAX0.0173505835 26.5
0x96632c5a43d7a43c63d2d11a0b8ccaaf45bf69b065b8ea209289fc1400527632Compound149230482022-05-20 1:22:0647 days 2 hrs ago0x88b7a44cecd526cd2d424b0a4cc2bbb26341dd8fOUT 0x43c5ff0b7d62498795ff4ce1727fe9841f76255a0 AVAX0.077127826 26.5
0xf5265e06b176d642175364b6f319cc066fa28308ffba2a273ae700e35845beceAny Swap Out Und...147547032022-05-16 3:37:0350 days 23 hrs ago0x88b7a44cecd526cd2d424b0a4cc2bbb26341dd8fOUT AnySwap: V4 Router0 AVAX0.002522482 26.5
0x0c1352a884f91d738a69d14456ca011f23cf170442666feb4f0f883f846debe7Compound143818802022-05-07 9:43:0259 days 17 hrs ago0x88b7a44cecd526cd2d424b0a4cc2bbb26341dd8fOUT 0x43c5ff0b7d62498795ff4ce1727fe9841f76255a0 AVAX0.143921441538 52.556533326
0xdd3c31e295e7f8835a3e0a86341bd2ba329e282d942210061fd1a8acfabc6a92Approve143818342022-05-07 9:41:2059 days 17 hrs ago0x88b7a44cecd526cd2d424b0a4cc2bbb26341dd8fOUT Platypus Finance: PTP Token0 AVAX0.001427312139 53.451377723
0xce3cc1a31a6842df04af5ca622ecaae3795abb5b12688bd5d86722440afd4dccApprove143808462022-05-07 9:05:4359 days 18 hrs ago0x88b7a44cecd526cd2d424b0a4cc2bbb26341dd8fOUT 0x6e84a6216ea6dacc71ee8e6b0a5b7322eebc0fdd0 AVAX0.002475249173 53.223152924
0xf17a58aa8036230c2ea4ffa3e230cd2a5a7ea5f6071c8764c42cb38438015df2Approve143808422022-05-07 9:05:3559 days 18 hrs ago0x88b7a44cecd526cd2d424b0a4cc2bbb26341dd8fOUT 0x769bfeb9faacd6eb2746979a8dd0b7e9920ac2a40 AVAX0.002480682247 53.249522332
0x2aab5a8b351c8717478d43aeb696e69db7a50120fda5dd62e7d8a465bf8d4398Approve143808392022-05-07 9:05:2959 days 18 hrs ago0x88b7a44cecd526cd2d424b0a4cc2bbb26341dd8fOUT 0x060556209e507d30f2167a101bfc6d256ed2f3e10 AVAX0.002418794761 51.921065596
0x73afa87d4d799fb2fd90c5e66553817aee972da83df5ba0925196a58fa9f7dffApprove143808352022-05-07 9:05:2159 days 18 hrs ago0x88b7a44cecd526cd2d424b0a4cc2bbb26341dd8fOUT Platypus Finance: PTP Token0 AVAX0.00240217555 51.545513177
0xd41eba053e2b77d795922a5b9e0e4504a559553247c626718d7728d8dd186149Approve143808332022-05-07 9:05:1359 days 18 hrs ago0x88b7a44cecd526cd2d424b0a4cc2bbb26341dd8fOUT 0x5817d4f0b62a59b17f75207da1848c2ce75e7af40 AVAX0.002414433433 51.776321698
0xc0bf5e99691fd44afcf83a08ed4c7f645c3944dafe99aec89baa60e462037748Transfer Tokens141266392022-05-01 7:47:4365 days 19 hrs ago0x88b7a44cecd526cd2d424b0a4cc2bbb26341dd8fOUT Wormhole: Token Bridge0 AVAX0.006279821733 45.804680771
0x08de3f7cf4a5d5d6d053dbdcc879164b72c0fbbd9d7a98957fa8d2078ac724e2Approve141265592022-05-01 7:45:0365 days 19 hrs ago0x88b7a44cecd526cd2d424b0a4cc2bbb26341dd8fOUT 0x9d228444fc4b7e15a2c481b48e10247a03351fd80 AVAX0.003134644057 50.93752023
0x8e71d4d231c9a13109b548fe289c1bacf3670d58d710068cc8b7fc8bd7009a85Complete Transfe...141263952022-05-01 7:39:1965 days 19 hrs ago0x88b7a44cecd526cd2d424b0a4cc2bbb26341dd8fOUT Wormhole: Token Bridge0 AVAX0.01182307732 43.221690475
0x9746fe1b0e02b52c4803add2f98ffe79f912190105aa0c5190733f907248a1deSwap Exact Token...139557102022-04-27 6:25:3869 days 21 hrs ago0x88b7a44cecd526cd2d424b0a4cc2bbb26341dd8fOUT Trader Joe: Router0 AVAX0.010618313682 77.177512354
0x0a17a35fd43abfb60000574d27004477576e57c77a579599704387c03602581eSwap Exact Token...139556982022-04-27 6:25:1469 days 21 hrs ago0x88b7a44cecd526cd2d424b0a4cc2bbb26341dd8fOUT Trader Joe: Router0 AVAX0.010099645957 80.509908309
0x3edcf78900cd2eb2e2d1d66a5df30be5bee4f3a95dbf6069edc8950cfc68343cSwap Exact Token...139556882022-04-27 6:24:5169 days 21 hrs ago0x88b7a44cecd526cd2d424b0a4cc2bbb26341dd8fOUT Trader Joe: Router0 AVAX0.010751575957 78.146107862
0x731be7ae60c9ac73d1f46798a1c2a1372355f0648656dcf91bc0a492b0dfeb71Swap Exact Token...139556762022-04-27 6:24:2769 days 21 hrs ago0x88b7a44cecd526cd2d424b0a4cc2bbb26341dd8fOUT Trader Joe: Router0 AVAX0.010983465986 77.655144523
0xa3c3b57e5d986b788061bc1ff9850f84ec323c7560d10ea751e694afcab08312Multiclaim139556362022-04-27 6:23:0669 days 21 hrs ago0x88b7a44cecd526cd2d424b0a4cc2bbb26341dd8fOUT 0x423d0fe33031aa4456a17b150804aa57fc157d970 AVAX0.050537206342 75.22219809
0x3aede9137d99353e0eb111a208c7d96bd213124693f87f216bdfab8ed48cbc96Swap Exact Token...134334722022-04-15 2:35:1182 days 56 mins ago0x88b7a44cecd526cd2d424b0a4cc2bbb26341dd8fOUT Trader Joe: Router0 AVAX0.008063768324 57.012339767
0x2b5aaebbb47c16d78a608d5f23540fd81996c3c619fb1ea182e20307d554a7c5Multiclaim134330602022-04-15 2:21:1782 days 1 hr ago0x88b7a44cecd526cd2d424b0a4cc2bbb26341dd8fOUT 0x423d0fe33031aa4456a17b150804aa57fc157d970 AVAX0.028334664561 53.196551827
0xe898a72ef6f4bdaddad3f05de1b642d0f56e851e882043575245d0a3d0dae075Swap Exact Token...133119252022-04-12 6:38:1384 days 20 hrs ago0x88b7a44cecd526cd2d424b0a4cc2bbb26341dd8fOUT Trader Joe: Router0 AVAX0.007096321362 51.578475263
0x4bfdd242b9be1c17b2b76e313682ac050c41c9384da87a426a2946871d8b52abSwap Exact Token...133119142022-04-12 6:37:5284 days 20 hrs ago0x88b7a44cecd526cd2d424b0a4cc2bbb26341dd8fOUT Trader Joe: Router0 AVAX0.00734488545 51.929704326
[ Download CSV Export 
Latest 9 internal transactions
Parent Txn Hash Block From To Value
0x9746fe1b0e02b52c4803add2f98ffe79f912190105aa0c5190733f907248a1de139557102022-04-27 6:25:3869 days 21 hrs ago Trader Joe: Router0x88b7a44cecd526cd2d424b0a4cc2bbb26341dd8f0.792603802120984848 AVAX
0x3edcf78900cd2eb2e2d1d66a5df30be5bee4f3a95dbf6069edc8950cfc68343c139556882022-04-27 6:24:5169 days 21 hrs ago Trader Joe: Router0x88b7a44cecd526cd2d424b0a4cc2bbb26341dd8f1.803120921537237244 AVAX
0x731be7ae60c9ac73d1f46798a1c2a1372355f0648656dcf91bc0a492b0dfeb71139556762022-04-27 6:24:2769 days 21 hrs ago Trader Joe: Router0x88b7a44cecd526cd2d424b0a4cc2bbb26341dd8f7.858745943259915609 AVAX
0x3aede9137d99353e0eb111a208c7d96bd213124693f87f216bdfab8ed48cbc96134334722022-04-15 2:35:1182 days 56 mins ago Trader Joe: Router0x88b7a44cecd526cd2d424b0a4cc2bbb26341dd8f2.699095229131413137 AVAX
0xe898a72ef6f4bdaddad3f05de1b642d0f56e851e882043575245d0a3d0dae075133119252022-04-12 6:38:1384 days 20 hrs ago Trader Joe: Router0x88b7a44cecd526cd2d424b0a4cc2bbb26341dd8f2.893050439498737066 AVAX
0x4bfdd242b9be1c17b2b76e313682ac050c41c9384da87a426a2946871d8b52ab133119142022-04-12 6:37:5284 days 20 hrs ago Trader Joe: Router0x88b7a44cecd526cd2d424b0a4cc2bbb26341dd8f4.957393439241250944 AVAX
0x24222a23fae16ded0560207cfbeb0e5a12f3aa44fb97c1c2bd53b9d67d9471bb122616392022-03-18 11:10:49109 days 16 hrs ago 0x66a71dcef29a0ffbdbe3c6a460a3b5bc225cd6750x88b7a44cecd526cd2d424b0a4cc2bbb26341dd8f0.001504869461160866 AVAX
0x2d90e5980e78ce41035a57cc8f07f3167ca67ecd4c03d2e8dd196a5cc8146f2f119133732022-03-10 2:15:17118 days 1 hr ago Trader Joe: Router0x88b7a44cecd526cd2d424b0a4cc2bbb26341dd8f19.608122554004717089 AVAX
0xaaee28c9a3a8f564d9fac66b4705a2dba668f2d12aeb9213c7152460ca0d3e09118680672022-03-09 0:50:32119 days 2 hrs ago Trader Joe: Router0x88b7a44cecd526cd2d424b0a4cc2bbb26341dd8f17.229494551870000741 AVAX
[ Download CSV Export 
Loading

Contract Name:
0

Compiler Version
0

Optimization Enabled:
0

Other Settings:
-NA-
Block Transaction Gas Used Reward
Age Block Fee Address BC Fee Address Voting Power Jailed Incoming
Block Uncle Number Difficulty Gas Used Reward
Loading
Make sure to use the "Vote Down" button for any spammy posts, and the "Vote Up" for interesting conversations.